Powell Point, Texas
Current Conditions -  °F | °C
As of 3:15 AM on Wednesday 28 Jan 2015 (Local Time) from KARM Reporting Station
Clear Clear  
Wind Chill: 51°   Ceiling: Unl
Heat Index: 51°   Visibility: 10mi
Dew Point: 46°   Wind: 0mph
Humidity: 84%   Direction: NA
Pressure: 30.16"   Gusts: NA
Location:  29.4506°N, 96.0068°W
Report Text: KARM 280915Z AUTO 00000KT 10SM CLR 11/08 A3016 RMK AO2 T01050079
Loading
Personal Weather Stations






























Interactive Weather Map New forecast layout! Learn more

10-Day Weather Forecast

Advertisements
Track Severe Weather on mobile